Impacts METAR Board
IDs:

KDFW - Dallas-Ft Worth Intl, TX, US

Updated at: 0300 UTC 22 Jun 2018
Potential Impact None Slight Moderate High
Time 21/15Z 21/16Z 21/17Z 21/18Z 21/19Z 21/20Z 21/21Z 21/22Z 21/23Z 22/00Z 22/01Z 22/02Z 22/03Z
Temp83 86 91 93 95 96 95 97 96 96 94 92 89
Dewpt73 73 69 63 66 64 62 61 61 61 61 62 73
Altim29.93 29.93 29.92 29.91 29.89 29.88 29.86 29.85 29.82 29.82 29.81 29.81 29.82
VIS10 10 10 10 10 10 10 10 10 10 10 10 10
CIG-- -- -- -- -- -- -- -- -- -- -- -- --
CoverFEWFEWFEWSCTSCTSCTSCTSCTFEWFEWFEWFEWFEW
FltCatVFRVFRVFRVFRVFRVFRVFRVFRVFRVFRVFRVFRVFR
WX--------------------------
WDir310270003501202102500170180180150
WSpd6 4 3 5 6 3 5 7 0 6 5 5 11
WGst-- -- -- -- -- -- -- -- -- -- -- -- --
Raw hourly METARs
KDFW 211453Z 31006KT 10SM FEW020 FEW300 28/23 A2993 RMK AO2 SLP125 T02830228 53005
KDFW 211553Z 27004KT 10SM FEW020 FEW300 30/23 A2993 RMK AO2 SLP124 T03000228
KDFW 211653Z VRB03KT 10SM FEW035 FEW300 33/21 A2992 RMK AO2 SLP122 T03280206
KDFW 211753Z VRB05KT 10SM SCT045 SCT250 34/17 A2991 RMK AO2 SLP119 T03390172 10344 20244 58006
KDFW 211853Z 35006KT 10SM SCT055 SCT250 35/19 A2989 RMK AO2 SLP113 T03500189
KDFW 211953Z 12003KT 10SM FEW060 SCT250 36/18 A2988 RMK AO2 SLP107 T03560178
KDFW 212053Z 21005KT 10SM FEW060 SCT250 35/17 A2986 RMK AO2 SLP102 T03500167 56017
KDFW 212153Z 25007KT 10SM FEW075 SCT250 36/16 A2985 RMK AO2 SLP097 T03610161
KDFW 212253Z 00000KT 10SM FEW075 FEW250 36/16 A2982 RMK AO2 SLP090 T03560161
KDFW 212353Z 17006KT 10SM FEW075 FEW250 36/16 A2982 RMK AO2 SLP087 T03560161 10367 20328 56014
KDFW 220053Z 18005KT 10SM FEW075 FEW250 34/16 A2981 RMK AO2 SLP085 T03440161
KDFW 220153Z 18005KT 10SM FEW075 FEW250 33/17 A2981 RMK AO2 SLP085 T03330167
KDFW 220253Z 15011KT 10SM FEW250 32/23 A2982 RMK AO2 SLP089 T03170228 53002



Page loaded:  03:22 UTC  |   08:22 PM Pacific  |   09:22 PM Mountain  |   10:22 PM Central  |   11:22 PM Eastern

 

ADVISORIES

FORECASTS

FORECASTS

OBSERVATIONS

USER TOOLS

ABOUT US